createdAt,value
2022-12-03T00:02:21.570Z,21.17
2022-12-03T00:04:48.353Z,25.07
2022-12-03T00:07:14.980Z,22.50
2022-12-03T00:09:41.614Z,22.97
2022-12-03T00:12:08.605Z,24.20
2022-12-03T00:14:37.819Z,24.80
2022-12-03T00:17:08.026Z,22.97
2022-12-03T00:19:34.661Z,21.80
2022-12-03T00:22:04.143Z,23.20
2022-12-03T00:24:31.390Z,24.17
2022-12-03T00:26:58.049Z,24.63
2022-12-03T00:29:24.702Z,22.70
2022-12-03T00:31:51.306Z,22.47
2022-12-03T00:34:18.042Z,23.43
2022-12-03T00:36:44.762Z,20.90
2022-12-03T00:39:11.390Z,21.73
2022-12-03T00:41:38.025Z,24.13
2022-12-03T00:44:04.914Z,26.03
2022-12-03T00:46:31.652Z,23.93
2022-12-03T00:48:58.342Z,27.90
2022-12-03T00:51:25.001Z,22.63
2022-12-03T00:53:51.622Z,24.77
2022-12-03T00:56:18.210Z,28.10
2022-12-03T00:58:44.861Z,21.63
2022-12-03T01:01:11.493Z,24.10
2022-12-03T01:03:38.117Z,25.53
2022-12-03T01:06:04.952Z,26.97
2022-12-03T01:08:31.578Z,26.13
2022-12-03T01:10:58.281Z,26.90
2022-12-03T01:13:24.932Z,25.50
2022-12-03T01:15:51.734Z,26.63
2022-12-03T01:18:18.434Z,28.50
2022-12-03T01:20:45.214Z,27.50
2022-12-03T01:23:11.926Z,29.97
2022-12-03T01:25:38.635Z,28.77
2022-12-03T01:28:05.264Z,28.47
2022-12-03T01:30:51.875Z,27.07
2022-12-03T01:33:18.590Z,25.47
2022-12-03T01:35:46.328Z,26.17
2022-12-03T01:38:12.952Z,26.70
2022-12-03T01:40:39.731Z,27.30
2022-12-03T01:43:06.394Z,26.83
2022-12-03T01:45:33.101Z,31.43
2022-12-03T01:48:00.703Z,23.33
2022-12-03T01:50:33.127Z,26.77
2022-12-03T01:53:02.305Z,25.93
2022-12-03T01:55:29.793Z,27.13
2022-12-03T01:58:00.700Z,28.27
2022-12-03T02:00:28.389Z,23.87
2022-12-03T02:03:01.251Z,25.40
2022-12-03T02:05:30.619Z,23.83
2022-12-03T02:07:58.451Z,24.73
2022-12-03T02:10:32.210Z,27.93
2022-12-03T02:13:02.713Z,25.00
2022-12-03T02:15:29.553Z,30.90
2022-12-03T02:17:57.694Z,28.23
2022-12-03T02:20:24.456Z,27.53
2022-12-03T02:23:03.632Z,28.03
2022-12-03T02:25:33.383Z,25.90
2022-12-03T02:28:01.497Z,25.63
2022-12-03T02:30:29.766Z,26.40
2022-12-03T02:32:57.181Z,28.17
2022-12-03T02:35:31.677Z,25.10
2022-12-03T02:38:25.316Z,25.67
2022-12-03T02:40:56.669Z,26.57
2022-12-03T02:43:24.000Z,29.00
2022-12-03T02:45:53.927Z,27.77
2022-12-03T02:48:34.493Z,29.57
2022-12-03T02:51:04.795Z,30.90
2022-12-03T02:53:36.151Z,28.27
2022-12-03T02:56:04.495Z,27.07
2022-12-03T02:58:32.720Z,27.10
2022-12-03T03:01:02.179Z,25.50
2022-12-03T03:03:30.865Z,30.60
2022-12-03T03:05:59.294Z,27.70
2022-12-03T03:08:27.004Z,27.40
2022-12-03T03:10:54.917Z,30.57
2022-12-03T03:13:22.137Z,27.93
2022-12-03T03:15:48.873Z,30.23
2022-12-03T03:18:16.601Z,30.30
2022-12-03T03:20:44.149Z,28.70
2022-12-03T03:23:21.947Z,34.00
2022-12-03T03:26:16.516Z,27.70
2022-12-03T03:28:47.616Z,31.43
2022-12-03T03:31:17.869Z,30.00
2022-12-03T03:33:46.922Z,25.83
2022-12-03T03:36:14.707Z,25.57
2022-12-03T03:38:41.965Z,28.97
2022-12-03T03:41:10.520Z,27.70
2022-12-03T03:43:38.915Z,30.27
2022-12-03T03:46:07.179Z,25.03
2022-12-03T03:48:35.239Z,24.40
2022-12-03T03:51:08.672Z,28.63
2022-12-03T03:53:38.551Z,23.20
2022-12-03T03:56:05.727Z,25.13
2022-12-03T03:58:32.533Z,29.70
2022-12-03T04:01:00.363Z,27.50
2022-12-03T04:03:28.207Z,27.87
2022-12-03T04:05:55.197Z,28.93
2022-12-03T04:08:21.858Z,25.03
2022-12-03T04:11:07.413Z,27.47
2022-12-03T04:13:34.040Z,26.70
2022-12-03T04:16:00.771Z,28.60
2022-12-03T04:18:42.774Z,28.00
2022-12-03T04:21:33.036Z,31.20
2022-12-03T04:24:00.310Z,26.63
2022-12-03T04:26:45.461Z,28.40
2022-12-03T04:29:13.107Z,24.90
2022-12-03T04:31:58.398Z,26.80
2022-12-03T04:34:43.891Z,28.13
2022-12-03T04:37:10.708Z,26.50
2022-12-03T04:39:37.659Z,27.37
2022-12-03T04:42:05.811Z,26.83
2022-12-03T04:44:33.176Z,27.17
2022-12-03T04:47:00.822Z,26.90
2022-12-03T04:49:27.475Z,24.43
2022-12-03T04:51:54.179Z,26.50
2022-12-03T04:54:20.837Z,25.83
2022-12-03T04:56:47.568Z,27.37
2022-12-03T04:59:16.567Z,25.23
2022-12-03T05:01:44.520Z,26.33
2022-12-03T05:04:12.795Z,28.27
2022-12-03T05:06:39.766Z,23.93
2022-12-03T05:09:06.843Z,25.87
2022-12-03T05:11:33.872Z,23.97
2022-12-03T05:14:00.711Z,26.60
2022-12-03T05:16:27.405Z,24.53
2022-12-03T05:18:54.099Z,28.60
2022-12-03T05:21:20.740Z,27.10
2022-12-03T05:23:47.418Z,22.97
2022-12-03T05:26:14.156Z,25.40
2022-12-03T05:28:40.942Z,26.37
2022-12-03T05:31:07.848Z,24.80
2022-12-03T05:33:36.427Z,27.13
2022-12-03T05:36:06.420Z,26.17
2022-12-03T05:38:33.159Z,31.03
2022-12-03T05:40:59.812Z,26.87
2022-12-03T05:43:26.606Z,26.07
2022-12-03T05:45:53.501Z,25.47
2022-12-03T05:48:20.352Z,24.40
2022-12-03T05:50:47.087Z,25.80
2022-12-03T05:53:14.918Z,22.87
2022-12-03T05:55:42.087Z,28.50
2022-12-03T05:58:09.153Z,22.67
2022-12-03T06:00:42.452Z,23.07
2022-12-03T06:03:10.663Z,25.70
2022-12-03T06:05:37.665Z,24.67
2022-12-03T06:08:04.807Z,24.67
2022-12-03T06:10:31.605Z,22.63
2022-12-03T06:12:58.412Z,22.93
2022-12-03T06:15:25.040Z,26.07
2022-12-03T06:17:52.358Z,28.47
2022-12-03T06:20:20.833Z,24.27
2022-12-03T06:22:47.850Z,25.43
2022-12-03T06:25:16.260Z,23.47
2022-12-03T06:27:43.099Z,27.10
2022-12-03T06:30:12.695Z,25.77
2022-12-03T06:32:39.324Z,27.30
2022-12-03T06:35:06.133Z,31.63
2022-12-03T06:37:32.761Z,26.83
2022-12-03T06:39:59.447Z,26.37
2022-12-03T06:42:26.104Z,27.93
2022-12-03T06:44:53.322Z,23.73
2022-12-03T06:47:20.247Z,29.23
2022-12-03T06:49:46.932Z,27.03
2022-12-03T06:52:13.539Z,29.37
2022-12-03T06:54:40.176Z,30.70
2022-12-03T06:57:06.795Z,26.33
2022-12-03T06:59:35.677Z,28.33
2022-12-03T07:02:02.389Z,28.03
2022-12-03T07:04:29.058Z,32.23
2022-12-03T07:06:55.732Z,34.33
2022-12-03T07:09:22.475Z,36.70
2022-12-03T07:11:49.147Z,36.60
2022-12-03T07:14:15.795Z,32.93
2022-12-03T07:16:43.684Z,31.30
2022-12-03T07:19:11.454Z,36.27
2022-12-03T07:21:38.767Z,36.30
2022-12-03T07:24:06.227Z,36.63
2022-12-03T07:26:33.110Z,32.70
2022-12-03T07:29:00.043Z,32.37
2022-12-03T07:31:26.937Z,35.23
2022-12-03T07:33:53.690Z,34.63
2022-12-03T07:36:20.591Z,33.90
2022-12-03T07:38:47.283Z,38.23
2022-12-03T07:41:13.918Z,34.27
2022-12-03T07:43:40.560Z,33.80
2022-12-03T07:46:07.239Z,31.53
2022-12-03T07:48:34.088Z,35.20
2022-12-03T07:51:00.827Z,33.50
2022-12-03T07:53:27.517Z,30.90
2022-12-03T07:55:54.192Z,35.13
2022-12-03T07:58:26.198Z,32.03
2022-12-03T08:00:53.034Z,34.93
2022-12-03T08:03:19.829Z,29.80
2022-12-03T08:05:46.586Z,33.60
2022-12-03T08:08:13.822Z,31.60
2022-12-03T08:10:40.662Z,33.13
2022-12-03T08:13:13.124Z,34.83
2022-12-03T08:15:39.940Z,34.47
2022-12-03T08:18:21.346Z,30.70
2022-12-03T08:20:51.782Z,30.53
2022-12-03T08:23:25.138Z,30.47
2022-12-03T08:25:53.029Z,34.33
2022-12-03T08:28:20.631Z,36.20
2022-12-03T08:31:02.521Z,38.87
2022-12-03T08:33:36.907Z,39.67
2022-12-03T08:36:11.502Z,41.27
2022-12-03T08:38:38.251Z,40.57
2022-12-03T08:41:14.335Z,38.07
2022-12-03T08:43:43.638Z,39.47
2022-12-03T08:46:18.920Z,39.67
2022-12-03T08:48:48.978Z,42.60
2022-12-03T08:51:20.579Z,41.67
2022-12-03T08:53:50.297Z,40.37
2022-12-03T08:56:30.970Z,35.57
2022-12-03T08:59:28.014Z,37.00
2022-12-03T09:01:55.769Z,33.33
2022-12-03T09:04:53.059Z,38.73
2022-12-03T09:07:20.004Z,32.43
2022-12-03T09:09:46.620Z,32.13
2022-12-03T09:12:13.374Z,34.03
2022-12-03T09:14:40.075Z,29.57
2022-12-03T09:17:06.811Z,31.30
2022-12-03T09:19:33.491Z,28.93
2022-12-03T09:22:00.151Z,30.93
2022-12-03T09:24:26.862Z,30.70
2022-12-03T09:26:54.172Z,31.13
2022-12-03T09:29:20.910Z,29.73
2022-12-03T09:31:47.750Z,30.53
2022-12-03T09:34:14.575Z,30.83
2022-12-03T09:36:41.279Z,32.07
2022-12-03T09:39:07.989Z,28.90
2022-12-03T09:41:37.854Z,28.93
2022-12-03T09:44:10.872Z,26.83
2022-12-03T09:46:43.427Z,27.27
2022-12-03T09:49:15.827Z,27.00
2022-12-03T09:51:44.440Z,27.90
2022-12-03T09:54:22.223Z,29.37
2022-12-03T09:56:49.013Z,29.90
2022-12-03T09:59:16.342Z,26.90
2022-12-03T10:01:43.372Z,28.17
2022-12-03T10:04:10.605Z,28.23
2022-12-03T10:06:42.511Z,29.60
2022-12-03T10:09:14.364Z,25.27
2022-12-03T10:11:41.138Z,29.03
2022-12-03T10:14:10.894Z,29.67
2022-12-03T10:16:40.188Z,29.90
2022-12-03T10:19:09.479Z,28.87
2022-12-03T10:21:38.347Z,30.23
2022-12-03T10:24:20.293Z,29.00
2022-12-03T10:26:49.031Z,29.60
2022-12-03T10:29:24.722Z,28.23
2022-12-03T10:32:00.963Z,31.90
2022-12-03T10:34:30.596Z,26.93
2022-12-03T10:37:22.570Z,30.43
2022-12-03T10:40:11.412Z,27.47
2022-12-03T10:42:41.798Z,28.90
2022-12-03T10:45:24.201Z,26.70
2022-12-03T10:48:27.158Z,28.33
2022-12-03T10:51:24.151Z,25.37
2022-12-03T10:53:51.039Z,28.00
2022-12-03T10:56:27.601Z,24.07
2022-12-03T10:58:54.689Z,24.20
2022-12-03T11:01:24.864Z,26.07
2022-12-03T11:03:52.125Z,23.87
2022-12-03T11:06:21.276Z,25.70
2022-12-03T11:08:56.768Z,26.60
2022-12-03T11:11:26.846Z,27.60
2022-12-03T11:13:55.499Z,27.77
2022-12-03T11:16:40.536Z,27.60
2022-12-03T11:19:13.186Z,24.70
2022-12-03T11:22:05.011Z,24.60
2022-12-03T11:24:36.812Z,27.40
2022-12-03T11:27:03.405Z,24.93
2022-12-03T11:30:02.963Z,23.23
2022-12-03T11:32:38.291Z,23.70
2022-12-03T11:35:23.502Z,22.03
2022-12-03T11:37:50.207Z,23.43
2022-12-03T11:40:16.810Z,20.87
2022-12-03T11:42:45.375Z,22.73
2022-12-03T11:45:33.046Z,25.27
2022-12-03T11:47:59.636Z,21.43
2022-12-03T11:50:40.892Z,22.87
2022-12-03T11:53:25.402Z,23.40
2022-12-03T11:56:08.415Z,21.30
2022-12-03T11:58:41.713Z,23.13
2022-12-03T12:01:09.030Z,22.93
2022-12-03T12:03:42.224Z,22.53
2022-12-03T12:06:14.683Z,23.67
2022-12-03T12:08:56.054Z,19.53
2022-12-03T12:11:30.040Z,22.40
2022-12-03T12:14:01.649Z,21.43
2022-12-03T12:16:41.920Z,21.30
2022-12-03T12:19:33.682Z,21.17
2022-12-03T12:22:15.707Z,24.10
2022-12-03T12:24:43.510Z,21.63
2022-12-03T12:27:12.434Z,25.67
2022-12-03T12:29:41.211Z,25.43
2022-12-03T12:32:10.775Z,25.27
2022-12-03T12:34:42.024Z,24.27
2022-12-03T12:37:47.316Z,24.63
2022-12-03T12:40:17.552Z,23.87
2022-12-03T12:42:51.230Z,24.67
2022-12-03T12:45:24.957Z,23.83
2022-12-03T12:48:09.942Z,23.17
2022-12-03T12:50:45.843Z,25.97
2022-12-03T12:53:32.841Z,25.37
2022-12-03T12:56:24.645Z,25.57
2022-12-03T12:58:51.888Z,28.50
2022-12-03T13:01:25.461Z,28.57
2022-12-03T13:03:52.774Z,24.27
2022-12-03T13:06:29.990Z,25.20
2022-12-03T13:08:58.106Z,25.20
2022-12-03T13:11:24.725Z,24.73
2022-12-03T13:13:52.218Z,26.63
2022-12-03T13:16:31.227Z,25.03
2022-12-03T13:19:02.045Z,23.67
2022-12-03T13:21:56.038Z,27.57
2022-12-03T13:24:45.495Z,27.07
2022-12-03T13:27:18.456Z,26.63
2022-12-03T13:29:48.894Z,28.03
2022-12-03T13:32:40.780Z,27.93
2022-12-03T13:35:10.569Z,30.40
2022-12-03T13:37:38.067Z,24.80
2022-12-03T13:40:23.486Z,27.67
2022-12-03T13:42:50.301Z,25.33
2022-12-03T13:45:16.998Z,26.90
2022-12-03T13:47:49.437Z,25.33
2022-12-03T13:50:32.139Z,27.13
2022-12-03T13:53:01.074Z,27.37
2022-12-03T13:55:31.327Z,29.77
2022-12-03T13:57:58.161Z,26.30
2022-12-03T14:00:25.055Z,31.90
2022-12-03T14:02:51.902Z,25.67
2022-12-03T14:05:19.002Z,31.03
2022-12-03T14:07:45.701Z,30.60
2022-12-03T14:10:13.089Z,33.13
2022-12-03T14:12:39.696Z,32.57
2022-12-03T14:15:07.086Z,29.40
2022-12-03T14:17:33.876Z,26.63
2022-12-03T14:20:01.348Z,27.57
2022-12-03T14:22:28.725Z,29.77
2022-12-03T14:24:55.838Z,28.80
2022-12-03T14:27:23.137Z,23.80
2022-12-03T14:29:50.253Z,28.27
2022-12-03T14:32:17.575Z,24.50
2022-12-03T14:34:44.373Z,23.33
2022-12-03T14:37:11.102Z,22.20
2022-12-03T14:39:39.505Z,20.87
2022-12-03T14:42:15.776Z,23.50
2022-12-03T14:44:52.118Z,25.30
2022-12-03T14:47:22.269Z,23.63
2022-12-03T14:49:49.836Z,24.67
2022-12-03T14:52:17.273Z,24.00
2022-12-03T14:54:44.412Z,22.83
2022-12-03T14:57:12.987Z,22.97
2022-12-03T14:59:43.520Z,21.93
2022-12-03T15:02:14.448Z,19.83
2022-12-03T15:04:41.781Z,22.03
2022-12-03T15:07:09.590Z,20.03
2022-12-03T15:09:36.447Z,19.93
2022-12-03T15:12:04.295Z,20.53
2022-12-03T15:14:31.004Z,22.17
2022-12-03T15:16:57.755Z,19.23
2022-12-03T15:19:24.515Z,21.27
2022-12-03T15:21:51.130Z,21.93
2022-12-03T15:24:17.939Z,18.80
2022-12-03T15:26:44.669Z,23.10
2022-12-03T15:29:14.405Z,20.83
2022-12-03T15:31:41.231Z,21.13
2022-12-03T15:34:08.052Z,18.13
2022-12-03T15:36:34.813Z,18.87
2022-12-03T15:39:01.482Z,19.60
2022-12-03T15:41:31.078Z,22.10
2022-12-03T15:44:01.397Z,21.03
2022-12-03T15:46:29.019Z,19.77
2022-12-03T15:48:56.103Z,22.37
2022-12-03T15:51:24.004Z,19.93
2022-12-03T15:53:50.842Z,19.40
2022-12-03T15:56:17.588Z,24.97
2022-12-03T15:58:44.322Z,23.03
2022-12-03T16:01:13.446Z,24.77
2022-12-03T16:03:40.422Z,25.23
2022-12-03T16:06:07.593Z,22.70
2022-12-03T16:08:34.257Z,25.10
2022-12-03T16:11:00.932Z,25.27
2022-12-03T16:13:27.598Z,26.20
2022-12-03T16:15:54.417Z,22.23
2022-12-03T16:18:21.140Z,22.43
2022-12-03T16:20:47.879Z,20.83
2022-12-03T16:23:14.665Z,26.23
2022-12-03T16:25:41.287Z,25.90
2022-12-03T16:28:08.216Z,23.47
2022-12-03T16:30:36.259Z,23.70
2022-12-03T16:33:04.868Z,22.63
2022-12-03T16:35:31.564Z,26.20
2022-12-03T16:37:58.242Z,22.37
2022-12-03T16:40:25.012Z,24.23
2022-12-03T16:42:51.760Z,27.50
2022-12-03T16:45:51.588Z,25.07
2022-12-03T16:48:18.941Z,23.47
2022-12-03T16:50:45.762Z,23.80
2022-12-03T16:53:13.008Z,26.83
2022-12-03T16:55:39.818Z,26.10
2022-12-03T16:58:06.839Z,25.63
2022-12-03T17:00:33.555Z,28.87
2022-12-03T17:03:00.339Z,29.27
2022-12-03T17:05:27.129Z,28.20
2022-12-03T17:07:53.951Z,33.07
2022-12-03T17:10:20.838Z,29.00
2022-12-03T17:13:08.858Z,28.80
2022-12-03T17:15:34.387Z,27.10
2022-12-03T17:18:03.467Z,27.07
2022-12-03T17:20:31.007Z,28.47
2022-12-03T17:22:58.687Z,30.17
2022-12-03T17:25:25.830Z,24.50
2022-12-03T17:27:52.589Z,30.13
2022-12-03T17:30:19.552Z,27.07
2022-12-03T17:32:46.359Z,33.33
2022-12-03T17:35:16.318Z,28.40
2022-12-03T17:37:42.982Z,34.30
2022-12-03T17:40:12.343Z,26.00
2022-12-03T17:42:39.313Z,29.83
2022-12-03T17:45:06.717Z,26.43
2022-12-03T17:47:33.366Z,30.60
2022-12-03T17:50:00.026Z,28.57
2022-12-03T17:52:26.796Z,32.67
2022-12-03T17:55:10.958Z,26.57
2022-12-03T17:57:38.812Z,29.43
2022-12-03T18:00:08.868Z,28.53
2022-12-03T18:02:35.569Z,27.10
2022-12-03T18:05:02.810Z,33.93
2022-12-03T18:07:29.607Z,25.50
2022-12-03T18:09:56.627Z,25.70
2022-12-03T18:12:23.671Z,27.03
2022-12-03T18:14:50.257Z,25.00
2022-12-03T18:17:16.911Z,29.50
2022-12-03T18:19:43.652Z,26.57
2022-12-03T18:22:10.409Z,30.43
2022-12-03T18:24:37.134Z,28.87
2022-12-03T18:27:03.918Z,26.57
2022-12-03T18:29:30.572Z,28.87
2022-12-03T18:31:57.259Z,32.77
2022-12-03T18:34:23.990Z,30.13
2022-12-03T18:36:50.841Z,33.00
2022-12-03T18:39:37.024Z,27.80
2022-12-03T18:42:14.948Z,30.83
2022-12-03T18:44:46.341Z,25.70
2022-12-03T18:47:19.006Z,28.87
2022-12-03T18:49:46.027Z,26.93
2022-12-03T18:52:18.167Z,26.23
2022-12-03T18:54:45.397Z,30.47
2022-12-03T18:57:12.335Z,28.93
2022-12-03T18:59:39.074Z,27.73
2022-12-03T19:02:06.918Z,27.47
2022-12-03T19:04:33.882Z,29.53
2022-12-03T19:07:00.616Z,23.60
2022-12-03T19:09:27.355Z,25.60
2022-12-03T19:11:54.030Z,29.30
2022-12-03T19:14:20.768Z,24.97
2022-12-03T19:16:49.904Z,27.57
2022-12-03T19:19:17.184Z,26.10
2022-12-03T19:21:44.000Z,28.70
2022-12-03T19:24:26.269Z,25.13
2022-12-03T19:26:55.262Z,29.53
2022-12-03T19:29:25.270Z,27.13
2022-12-03T19:31:52.450Z,26.40
2022-12-03T19:34:19.853Z,29.30
2022-12-03T19:36:47.543Z,27.07
2022-12-03T19:39:14.426Z,26.90
2022-12-03T19:41:43.132Z,27.97
2022-12-03T19:44:13.180Z,27.33
2022-12-03T19:46:40.378Z,23.07
2022-12-03T19:49:07.259Z,29.33
2022-12-03T19:51:35.778Z,25.60
2022-12-03T19:54:06.853Z,27.83
2022-12-03T19:56:34.187Z,27.67
2022-12-03T19:59:01.512Z,27.10
2022-12-03T20:01:30.917Z,27.83
2022-12-03T20:03:59.757Z,28.50
2022-12-03T20:06:31.533Z,30.10
2022-12-03T20:09:07.201Z,27.70
2022-12-03T20:11:35.176Z,28.70
2022-12-03T20:14:08.651Z,27.57
2022-12-03T20:16:35.791Z,30.50
2022-12-03T20:19:05.547Z,30.73
2022-12-03T20:21:34.036Z,30.03
2022-12-03T20:24:01.065Z,35.20
2022-12-03T20:26:28.449Z,29.47
2022-12-03T20:28:56.820Z,30.47
2022-12-03T20:31:25.991Z,32.40
2022-12-03T20:33:58.397Z,34.93
2022-12-03T20:36:26.357Z,33.00
2022-12-03T20:38:57.776Z,32.23
2022-12-03T20:41:24.538Z,31.47
2022-12-03T20:43:51.868Z,30.17
2022-12-03T20:46:20.331Z,31.60
2022-12-03T20:48:47.255Z,30.70
2022-12-03T20:51:19.334Z,30.70
2022-12-03T20:53:46.851Z,29.23
2022-12-03T20:56:22.068Z,34.10
2022-12-03T20:58:49.531Z,32.30
2022-12-03T21:01:19.980Z,30.77
2022-12-03T21:03:47.970Z,29.63
2022-12-03T21:06:15.761Z,29.63
2022-12-03T21:08:43.471Z,30.67
2022-12-03T21:11:21.671Z,29.53
2022-12-03T21:13:48.463Z,32.30
2022-12-03T21:16:18.048Z,32.23
2022-12-03T21:18:45.731Z,31.43
2022-12-03T21:21:14.517Z,31.20
2022-12-03T21:23:41.885Z,30.43
2022-12-03T21:26:11.322Z,28.87
2022-12-03T21:28:39.840Z,27.13
2022-12-03T21:31:08.980Z,27.30
2022-12-03T21:33:36.141Z,28.20
2022-12-03T21:36:04.692Z,34.07
2022-12-03T21:38:31.912Z,33.33
2022-12-03T21:40:58.887Z,31.43
2022-12-03T21:43:25.804Z,31.67
2022-12-03T21:45:53.041Z,33.63
2022-12-03T21:48:20.243Z,35.57
2022-12-03T21:50:57.112Z,31.63
2022-12-03T21:53:23.818Z,31.57
2022-12-03T21:55:50.538Z,33.00
2022-12-03T21:58:17.335Z,35.60
2022-12-03T22:00:44.130Z,37.47
2022-12-03T22:03:10.845Z,37.73
2022-12-03T22:05:40.861Z,36.20
2022-12-03T22:08:07.734Z,35.33
2022-12-03T22:10:35.732Z,38.10
2022-12-03T22:13:02.767Z,37.80
2022-12-03T22:15:29.553Z,36.10
2022-12-03T22:17:56.300Z,39.07
2022-12-03T22:20:23.048Z,36.23
2022-12-03T22:22:49.823Z,37.37
2022-12-03T22:25:16.500Z,39.77
2022-12-03T22:27:43.257Z,34.00
2022-12-03T22:30:10.181Z,38.43
2022-12-03T22:32:36.911Z,41.07
2022-12-03T22:35:03.747Z,41.10
2022-12-03T22:37:30.381Z,39.47
2022-12-03T22:39:57.366Z,38.63
2022-12-03T22:42:24.675Z,43.03
2022-12-03T22:44:51.412Z,39.63
2022-12-03T22:47:18.098Z,39.33
2022-12-03T22:49:44.783Z,39.50
2022-12-03T22:52:11.518Z,40.90
2022-12-03T22:54:38.159Z,44.50
2022-12-03T22:57:05.010Z,44.43
2022-12-03T22:59:31.731Z,44.63
2022-12-03T23:01:58.427Z,45.87
2022-12-03T23:04:25.290Z,39.50
2022-12-03T23:06:52.015Z,38.63
2022-12-03T23:09:18.746Z,43.60
2022-12-03T23:11:46.044Z,40.40
2022-12-03T23:14:14.036Z,46.27
2022-12-03T23:16:40.967Z,43.50
2022-12-03T23:19:07.839Z,41.17
2022-12-03T23:21:35.111Z,38.17
2022-12-03T23:24:03.744Z,47.40
2022-12-03T23:26:33.060Z,42.87
2022-12-03T23:29:00.415Z,40.90
2022-12-03T23:31:29.652Z,39.63
2022-12-03T23:33:58.246Z,42.03
2022-12-03T23:36:26.473Z,41.03
2022-12-03T23:38:54.137Z,38.93
2022-12-03T23:41:22.469Z,40.60
2022-12-03T23:43:49.523Z,35.53
2022-12-03T23:46:19.572Z,39.47
2022-12-03T23:48:46.712Z,38.03
2022-12-03T23:51:15.626Z,37.20
2022-12-03T23:53:42.827Z,37.87
2022-12-03T23:56:13.074Z,37.13
2022-12-03T23:58:40.232Z,39.57
